createdAt,value
2022-11-22T00:01:19.403Z,21.40
2022-11-22T00:03:21.057Z,21.40
2022-11-22T00:05:22.698Z,21.40
2022-11-22T00:07:24.386Z,21.40
2022-11-22T00:09:26.294Z,21.40
2022-11-22T00:11:28.023Z,21.30
2022-11-22T00:13:29.614Z,21.30
2022-11-22T00:15:31.513Z,21.30
2022-11-22T00:17:33.538Z,21.40
2022-11-22T00:19:35.724Z,21.30
2022-11-22T00:21:37.434Z,21.30
2022-11-22T00:23:39.081Z,21.30
2022-11-22T00:25:40.729Z,21.30
2022-11-22T00:27:42.375Z,21.30
2022-11-22T00:29:44.210Z,21.30
2022-11-22T00:31:45.806Z,21.30
2022-11-22T00:33:47.526Z,21.30
2022-11-22T00:35:49.150Z,21.30
2022-11-22T00:37:50.735Z,21.30
2022-11-22T00:39:52.377Z,21.30
2022-11-22T00:41:53.992Z,21.30
2022-11-22T00:43:55.593Z,21.30
2022-11-22T00:45:57.289Z,21.20
2022-11-22T00:47:58.886Z,21.30
2022-11-22T00:50:00.600Z,21.20
2022-11-22T00:52:02.192Z,21.20
2022-11-22T00:54:04.011Z,21.20
2022-11-22T00:56:06.621Z,21.20
2022-11-22T00:58:08.248Z,21.20
2022-11-22T01:00:10.483Z,21.20
2022-11-22T01:02:12.126Z,21.20
2022-11-22T01:04:13.783Z,21.20
2022-11-22T01:06:15.487Z,21.20
2022-11-22T01:08:17.265Z,21.20
2022-11-22T01:10:19.094Z,21.20
2022-11-22T01:12:20.840Z,21.20
2022-11-22T01:14:22.548Z,21.20
2022-11-22T01:16:24.372Z,21.20
2022-11-22T01:18:26.186Z,21.20
2022-11-22T01:20:27.921Z,21.20
2022-11-22T01:22:29.516Z,21.20
2022-11-22T01:24:31.151Z,21.10
2022-11-22T01:26:34.045Z,21.10
2022-11-22T01:28:36.385Z,21.10
2022-11-22T01:30:38.111Z,21.20
2022-11-22T01:32:40.056Z,21.20
2022-11-22T01:34:41.674Z,21.10
2022-11-22T01:36:43.348Z,21.10
2022-11-22T01:38:44.999Z,21.10
2022-11-22T01:40:46.735Z,21.10
2022-11-22T01:42:54.608Z,21.10
2022-11-22T01:45:16.231Z,21.10
2022-11-22T01:47:23.661Z,21.10
2022-11-22T01:49:47.092Z,21.10
2022-11-22T01:51:53.180Z,21.10
2022-11-22T01:54:00.482Z,21.10
2022-11-22T01:56:04.539Z,21.10
2022-11-22T01:58:07.099Z,21.10
2022-11-22T02:00:11.688Z,21.10
2022-11-22T02:02:13.522Z,21.10
2022-11-22T02:04:17.713Z,21.10
2022-11-22T02:06:20.392Z,21.10
2022-11-22T02:08:53.914Z,21.10
2022-11-22T02:10:57.742Z,21.00
2022-11-22T02:13:00.598Z,21.10
2022-11-22T02:15:03.555Z,21.00
2022-11-22T02:17:05.252Z,21.00
2022-11-22T02:19:25.662Z,21.10
2022-11-22T02:21:28.466Z,21.10
2022-11-22T02:24:07.379Z,21.00
2022-11-22T02:26:09.174Z,21.00
2022-11-22T02:28:13.490Z,21.00
2022-11-22T02:30:15.837Z,21.00
2022-11-22T02:32:17.479Z,21.00
2022-11-22T02:34:19.066Z,21.00
2022-11-22T02:36:20.675Z,21.00
2022-11-22T02:38:34.833Z,21.00
2022-11-22T02:40:46.282Z,21.00
2022-11-22T02:42:52.580Z,21.00
2022-11-22T02:44:54.239Z,21.00
2022-11-22T02:46:55.918Z,21.00
2022-11-22T02:48:57.594Z,21.00
2022-11-22T02:50:59.431Z,21.00
2022-11-22T02:53:01.087Z,21.00
2022-11-22T02:55:02.870Z,20.90
2022-11-22T02:57:04.520Z,20.90
2022-11-22T02:59:06.159Z,20.90
2022-11-22T03:01:07.798Z,20.90
2022-11-22T03:03:09.512Z,20.90
2022-11-22T03:05:11.167Z,20.90
2022-11-22T03:07:12.856Z,20.90
2022-11-22T03:09:14.541Z,20.90
2022-11-22T03:11:16.364Z,20.90
2022-11-22T03:13:17.955Z,20.90
2022-11-22T03:15:19.569Z,20.90
2022-11-22T03:17:21.216Z,20.90
2022-11-22T03:19:23.121Z,20.90
2022-11-22T03:21:24.831Z,20.90
2022-11-22T03:23:26.475Z,20.90
2022-11-22T03:25:28.594Z,20.90
2022-11-22T03:27:30.258Z,20.90
2022-11-22T03:29:32.343Z,20.80
2022-11-22T03:31:34.101Z,20.90
2022-11-22T03:33:36.040Z,20.90
2022-11-22T03:35:38.126Z,20.80
2022-11-22T03:37:39.774Z,20.90
2022-11-22T03:39:41.409Z,20.80
2022-11-22T03:41:43.078Z,20.90
2022-11-22T03:43:44.734Z,20.90
2022-11-22T03:45:47.170Z,20.90
2022-11-22T03:47:48.751Z,20.80
2022-11-22T03:49:50.382Z,20.80
2022-11-22T03:51:52.143Z,20.90
2022-11-22T03:53:53.803Z,20.90
2022-11-22T03:55:55.458Z,20.90
2022-11-22T03:57:57.095Z,20.80
2022-11-22T03:59:58.742Z,20.90
2022-11-22T04:02:00.481Z,20.80
2022-11-22T04:04:02.226Z,20.80
2022-11-22T04:06:03.906Z,20.80
2022-11-22T04:08:05.586Z,20.80
2022-11-22T04:10:08.074Z,20.80
2022-11-22T04:12:09.754Z,20.80
2022-11-22T04:14:30.454Z,20.80
2022-11-22T04:16:32.087Z,20.80
2022-11-22T04:18:33.666Z,20.80
2022-11-22T04:20:53.952Z,20.90
2022-11-22T04:23:00.327Z,20.80
2022-11-22T04:25:13.920Z,20.80
2022-11-22T04:27:15.523Z,20.90
2022-11-22T04:29:18.099Z,20.80
2022-11-22T04:31:38.279Z,20.80
2022-11-22T04:33:40.015Z,20.90
2022-11-22T04:35:43.155Z,20.90
2022-11-22T04:37:51.554Z,20.90
2022-11-22T04:39:53.146Z,20.90
2022-11-22T04:42:14.781Z,20.90
2022-11-22T04:44:34.886Z,21.00
2022-11-22T04:46:36.764Z,21.00
2022-11-22T04:48:38.475Z,21.10
2022-11-22T04:50:59.590Z,21.10
2022-11-22T04:53:01.221Z,21.20
2022-11-22T04:55:02.917Z,21.20
2022-11-22T04:57:04.553Z,21.20
2022-11-22T04:59:06.210Z,21.20
2022-11-22T05:01:08.110Z,21.20
2022-11-22T05:03:10.529Z,21.20
2022-11-22T05:05:12.249Z,21.30
2022-11-22T05:07:15.063Z,21.30
2022-11-22T05:09:16.856Z,21.30
2022-11-22T05:11:18.623Z,21.30
2022-11-22T05:13:23.049Z,21.30
2022-11-22T05:15:24.799Z,21.30
2022-11-22T05:17:26.415Z,21.30
2022-11-22T05:19:28.319Z,21.30
2022-11-22T05:21:30.605Z,21.40
2022-11-22T05:23:50.774Z,21.30
2022-11-22T05:25:52.416Z,21.40
2022-11-22T05:27:55.130Z,21.40
2022-11-22T05:29:56.748Z,21.40
2022-11-22T05:31:58.374Z,21.40
2022-11-22T05:34:00.115Z,21.40
2022-11-22T05:36:02.471Z,21.50
2022-11-22T05:38:04.168Z,21.50
2022-11-22T05:40:06.495Z,21.50
2022-11-22T05:42:08.147Z,21.50
2022-11-22T05:44:09.748Z,21.50
2022-11-22T05:46:25.136Z,21.50
2022-11-22T05:48:27.014Z,21.50
2022-11-22T05:50:28.660Z,21.50
2022-11-22T05:52:30.428Z,21.50
2022-11-22T05:54:32.081Z,21.50
2022-11-22T05:56:33.723Z,21.50
2022-11-22T05:58:35.938Z,21.50
2022-11-22T06:00:37.582Z,21.50
2022-11-22T06:02:39.303Z,21.50
2022-11-22T06:04:40.901Z,21.50
2022-11-22T06:06:42.490Z,21.50
2022-11-22T06:08:47.552Z,21.50
2022-11-22T06:10:49.232Z,21.50
2022-11-22T06:12:50.944Z,21.50
2022-11-22T06:14:52.552Z,21.60
2022-11-22T06:16:54.293Z,21.50
2022-11-22T06:18:56.365Z,21.50
2022-11-22T06:21:03.248Z,21.50
2022-11-22T06:23:04.843Z,21.60
2022-11-22T06:25:06.977Z,21.60
2022-11-22T06:27:09.130Z,21.60
2022-11-22T06:29:10.861Z,21.60
2022-11-22T06:31:18.398Z,21.60
2022-11-22T06:33:20.930Z,21.50
2022-11-22T06:35:22.600Z,21.50
2022-11-22T06:37:24.230Z,21.50
2022-11-22T06:39:25.830Z,21.50
2022-11-22T06:41:31.658Z,21.50
2022-11-22T06:43:34.835Z,21.50
2022-11-22T06:45:36.486Z,21.50
2022-11-22T06:47:38.106Z,21.50
2022-11-22T06:49:39.733Z,21.50
2022-11-22T06:51:41.354Z,21.50
2022-11-22T06:53:48.303Z,21.50
2022-11-22T06:55:51.906Z,21.50
2022-11-22T06:57:55.039Z,21.50
2022-11-22T06:59:56.779Z,21.50
2022-11-22T07:02:04.562Z,21.50
2022-11-22T07:04:07.965Z,21.50
2022-11-22T07:06:11.128Z,21.50
2022-11-22T07:08:14.147Z,21.50
2022-11-22T07:10:16.205Z,21.50
2022-11-22T07:12:17.874Z,21.40
2022-11-22T07:14:19.537Z,21.50
2022-11-22T07:16:21.713Z,21.50
2022-11-22T07:18:24.030Z,21.40
2022-11-22T07:20:25.699Z,21.40
2022-11-22T07:22:28.598Z,21.40
2022-11-22T07:24:30.317Z,21.40
2022-11-22T07:26:32.112Z,21.40
2022-11-22T07:28:33.749Z,21.40
2022-11-22T07:30:37.637Z,21.40
2022-11-22T07:32:47.175Z,21.40
2022-11-22T07:34:48.812Z,21.40
2022-11-22T07:36:54.414Z,21.40
2022-11-22T07:39:00.473Z,21.40
2022-11-22T07:41:02.416Z,21.40
2022-11-22T07:43:04.558Z,21.40
2022-11-22T07:45:06.659Z,21.40
2022-11-22T07:47:08.296Z,21.40
2022-11-22T07:49:10.040Z,21.40
2022-11-22T07:51:11.712Z,21.40
2022-11-22T07:53:13.371Z,21.40
2022-11-22T07:55:15.116Z,21.40
2022-11-22T07:57:16.753Z,21.40
2022-11-22T07:59:18.892Z,21.40
2022-11-22T08:01:21.512Z,21.40
2022-11-22T08:03:28.550Z,21.40
2022-11-22T08:05:30.690Z,21.40
2022-11-22T08:07:32.346Z,21.40
2022-11-22T08:09:34.016Z,21.40
2022-11-22T08:11:36.203Z,21.40
2022-11-22T08:13:38.013Z,21.30
2022-11-22T08:15:39.618Z,21.30
2022-11-22T08:17:41.431Z,21.30
2022-11-22T08:19:43.058Z,21.30
2022-11-22T08:21:45.415Z,21.30
2022-11-22T08:23:48.320Z,21.30
2022-11-22T08:25:49.962Z,21.30
2022-11-22T08:27:51.574Z,21.30
2022-11-22T08:29:53.190Z,21.30
2022-11-22T08:31:55.175Z,21.30
2022-11-22T08:33:56.861Z,21.30
2022-11-22T08:35:58.516Z,21.30
2022-11-22T08:38:00.229Z,21.30
2022-11-22T08:40:01.997Z,21.30
2022-11-22T08:42:03.683Z,21.30
2022-11-22T08:44:05.489Z,21.30
2022-11-22T08:46:07.188Z,21.30
2022-11-22T08:48:08.813Z,21.30
2022-11-22T08:50:10.478Z,21.30
2022-11-22T08:52:12.096Z,21.30
2022-11-22T08:54:15.456Z,21.30
2022-11-22T08:56:17.201Z,21.30
2022-11-22T08:58:19.106Z,21.30
2022-11-22T09:00:20.750Z,21.30
2022-11-22T09:02:22.374Z,21.30
2022-11-22T09:04:24.021Z,21.30
2022-11-22T09:08:55.355Z,21.30
2022-11-22T09:11:07.614Z,21.30
2022-11-22T09:13:09.259Z,21.30
2022-11-22T09:15:11.478Z,21.30
2022-11-22T09:17:17.608Z,21.30
2022-11-22T09:19:19.835Z,21.30
2022-11-22T09:21:21.508Z,21.30
2022-11-22T09:23:23.110Z,21.30
2022-11-22T09:25:24.764Z,21.30
2022-11-22T09:27:26.783Z,21.30
2022-11-22T09:29:28.760Z,21.30
2022-11-22T09:31:31.648Z,21.30
2022-11-22T09:33:35.032Z,21.30
2022-11-22T09:35:36.683Z,21.30
2022-11-22T09:37:38.435Z,21.30
2022-11-22T09:39:45.202Z,21.30
2022-11-22T09:42:15.938Z,21.30
2022-11-22T09:44:17.879Z,21.30
2022-11-22T09:46:44.981Z,21.30
2022-11-22T09:49:37.133Z,21.30
2022-11-22T09:51:47.522Z,21.30
2022-11-22T09:53:59.980Z,21.30
2022-11-22T09:56:09.468Z,21.20
2022-11-22T09:58:23.404Z,21.30
2022-11-22T10:00:28.605Z,21.30
2022-11-22T10:02:58.744Z,21.20
2022-11-22T10:05:02.332Z,21.30
2022-11-22T10:07:37.491Z,21.30
2022-11-22T10:10:13.194Z,21.20
2022-11-22T10:12:23.803Z,21.30
2022-11-22T10:14:34.383Z,21.30
2022-11-22T10:17:00.800Z,21.20
2022-11-22T10:19:18.191Z,21.20
2022-11-22T10:21:20.143Z,21.20
2022-11-22T10:23:23.922Z,21.20
2022-11-22T10:25:31.677Z,21.20
2022-11-22T10:27:33.569Z,21.20
2022-11-22T10:29:48.296Z,21.20
2022-11-22T10:32:02.359Z,21.20
2022-11-22T10:34:51.348Z,21.30
2022-11-22T10:37:01.892Z,21.20
2022-11-22T10:39:12.785Z,21.20
2022-11-22T10:41:31.137Z,21.20
2022-11-22T10:43:54.165Z,21.20
2022-11-22T10:46:22.702Z,21.20
2022-11-22T10:48:51.432Z,21.20
2022-11-22T10:51:13.431Z,21.20
2022-11-22T10:53:42.605Z,21.20
2022-11-22T10:56:04.559Z,21.20
2022-11-22T10:58:15.141Z,21.20
2022-11-22T11:00:20.803Z,21.20
2022-11-22T11:02:36.551Z,21.20
2022-11-22T11:04:39.928Z,21.20
2022-11-22T11:07:11.016Z,21.20
2022-11-22T11:11:47.017Z,21.20
2022-11-22T11:13:56.589Z,21.20
2022-11-22T11:16:01.569Z,21.20
2022-11-22T11:18:10.716Z,21.20
2022-11-22T11:20:25.199Z,21.20
2022-11-22T11:22:58.667Z,21.20
2022-11-22T11:24:52.617Z,21.20
2022-11-22T11:26:56.163Z,21.20
2022-11-22T11:29:16.657Z,21.20
2022-11-22T11:31:19.143Z,21.20
2022-11-22T11:33:32.190Z,21.20
2022-11-22T11:35:34.663Z,21.20
2022-11-22T11:37:38.650Z,21.20
2022-11-22T11:39:48.605Z,21.20
2022-11-22T11:41:50.827Z,21.30
2022-11-22T11:44:00.394Z,21.30
2022-11-22T11:46:38.538Z,21.20
2022-11-22T11:48:43.447Z,21.30
2022-11-22T11:50:45.143Z,21.20
2022-11-22T11:52:56.311Z,21.20
2022-11-22T11:55:01.352Z,21.30
2022-11-22T11:57:07.719Z,21.20
2022-11-22T11:59:21.192Z,21.20
2022-11-22T12:01:24.713Z,21.30
2022-11-22T12:03:26.690Z,21.30
2022-11-22T12:05:31.872Z,21.30
2022-11-22T12:07:36.651Z,21.30
2022-11-22T12:09:45.028Z,21.30
2022-11-22T12:11:51.615Z,21.30
2022-11-22T12:14:19.562Z,21.30
2022-11-22T12:16:34.302Z,21.30
2022-11-22T12:18:48.414Z,21.30
2022-11-22T12:21:06.355Z,21.30
2022-11-22T12:23:16.852Z,21.30
2022-11-22T12:25:32.707Z,21.30
2022-11-22T12:27:34.786Z,21.30
2022-11-22T12:29:40.660Z,21.30
2022-11-22T12:31:58.774Z,21.30
2022-11-22T12:34:07.763Z,21.30
2022-11-22T12:36:25.967Z,21.30
2022-11-22T12:38:39.311Z,21.30
2022-11-22T12:40:47.987Z,21.30
2022-11-22T12:42:59.397Z,21.30
2022-11-22T12:45:25.037Z,21.30
2022-11-22T12:47:36.091Z,21.40
2022-11-22T12:49:44.218Z,21.30
2022-11-22T12:52:02.902Z,21.40
2022-11-22T12:54:10.759Z,21.30
2022-11-22T12:56:32.767Z,21.40
2022-11-22T12:58:55.541Z,21.30
2022-11-22T13:01:05.963Z,21.40
2022-11-22T13:03:20.006Z,21.40
2022-11-22T13:05:29.413Z,21.40
2022-11-22T13:07:47.141Z,21.40
2022-11-22T13:09:55.277Z,21.40
2022-11-22T13:12:13.647Z,21.40
2022-11-22T13:14:21.302Z,21.40
2022-11-22T13:16:23.173Z,21.40
2022-11-22T13:18:32.498Z,21.40
2022-11-22T13:20:42.793Z,21.40
2022-11-22T13:23:16.763Z,21.40
2022-11-22T13:25:36.244Z,21.40
2022-11-22T13:27:48.407Z,21.40
2022-11-22T13:29:56.307Z,21.40
2022-11-22T13:32:10.845Z,21.40
2022-11-22T13:34:26.245Z,21.40
2022-11-22T13:36:28.237Z,21.40
2022-11-22T13:38:30.041Z,21.40
2022-11-22T13:40:37.782Z,21.40
2022-11-22T13:42:39.514Z,21.40
2022-11-22T13:44:56.229Z,21.40
2022-11-22T13:47:03.290Z,21.40
2022-11-22T13:49:15.323Z,21.40
2022-11-22T13:51:50.515Z,21.40
2022-11-22T13:54:30.717Z,21.40
2022-11-22T13:56:38.562Z,21.40
2022-11-22T13:58:40.176Z,21.40
2022-11-22T14:00:42.121Z,21.30
2022-11-22T14:02:53.951Z,21.40
2022-11-22T14:04:56.342Z,21.40
2022-11-22T14:07:10.024Z,21.40
2022-11-22T14:09:21.694Z,21.40
2022-11-22T14:11:39.321Z,21.40
2022-11-22T14:13:53.410Z,21.40
2022-11-22T14:16:17.031Z,21.30
2022-11-22T14:18:44.316Z,21.40
2022-11-22T14:20:56.242Z,21.30
2022-11-22T14:23:34.242Z,21.30
2022-11-22T14:25:44.838Z,21.40
2022-11-22T14:28:04.228Z,21.30
2022-11-22T14:30:21.613Z,21.30
2022-11-22T14:32:25.903Z,21.30
2022-11-22T14:34:30.314Z,21.30
2022-11-22T14:36:32.269Z,21.30
2022-11-22T14:38:44.632Z,21.30
2022-11-22T14:40:47.995Z,21.30
2022-11-22T14:42:52.714Z,21.30
2022-11-22T14:44:55.105Z,21.30
2022-11-22T14:47:02.722Z,21.40
2022-11-22T14:49:44.479Z,21.40
2022-11-22T14:51:51.551Z,21.40
2022-11-22T14:53:55.481Z,21.40
2022-11-22T14:56:23.281Z,21.40
2022-11-22T14:58:29.686Z,21.40
2022-11-22T15:00:58.263Z,21.40
2022-11-22T15:03:08.775Z,21.40
2022-11-22T15:09:12.685Z,21.40
2022-11-22T15:09:14.764Z,21.40
2022-11-22T15:10:42.916Z,21.50
2022-11-22T15:12:55.165Z,21.40
2022-11-22T15:57:45.363Z,21.50
2022-11-22T15:59:49.934Z,21.50
2022-11-22T16:01:55.894Z,21.50
2022-11-22T16:03:59.011Z,21.50
2022-11-22T16:06:10.872Z,21.60
2022-11-22T16:08:14.654Z,21.60
2022-11-22T16:10:39.061Z,21.60
2022-11-22T16:12:40.795Z,21.60
2022-11-22T16:14:45.763Z,21.50
2022-11-22T16:16:47.449Z,21.50
2022-11-22T16:18:50.692Z,21.50
2022-11-22T16:21:00.490Z,21.50
2022-11-22T16:23:13.802Z,21.50
2022-11-22T16:25:32.399Z,21.60
2022-11-22T16:27:34.118Z,21.60
2022-11-22T16:29:37.012Z,21.60
2022-11-22T16:31:40.466Z,21.60
2022-11-22T16:33:42.146Z,21.60
2022-11-22T16:35:43.785Z,21.60
2022-11-22T16:37:48.167Z,21.60
2022-11-22T16:39:50.087Z,21.60
2022-11-22T16:41:51.919Z,21.60
2022-11-22T16:44:02.433Z,21.60
2022-11-22T16:46:04.359Z,21.60
2022-11-22T16:48:33.063Z,21.60
2022-11-22T16:50:35.026Z,21.60
2022-11-22T16:52:37.445Z,21.60
2022-11-22T16:54:39.878Z,21.60
2022-11-22T16:56:42.043Z,21.60
2022-11-22T16:58:43.818Z,21.60
2022-11-22T17:00:46.638Z,21.60
2022-11-22T17:02:48.406Z,21.60
2022-11-22T17:04:50.079Z,21.70
2022-11-22T17:06:52.432Z,21.70
2022-11-22T17:08:56.706Z,21.60
2022-11-22T17:10:59.751Z,21.70
2022-11-22T17:13:01.400Z,21.60
2022-11-22T17:15:03.708Z,21.70
2022-11-22T17:17:05.385Z,21.70
2022-11-22T17:19:14.539Z,21.70
2022-11-22T17:21:37.436Z,21.60
2022-11-22T17:23:39.722Z,21.70
2022-11-22T17:25:41.367Z,21.70
2022-11-22T17:27:43.075Z,21.70
2022-11-22T17:29:51.877Z,21.70
2022-11-22T17:31:53.588Z,21.70
2022-11-22T17:33:57.870Z,21.70
2022-11-22T17:35:59.467Z,21.80
2022-11-22T17:38:01.183Z,21.80
2022-11-22T17:40:03.155Z,21.80
2022-11-22T17:42:04.855Z,21.80
2022-11-22T17:44:07.554Z,21.80
2022-11-22T17:46:09.241Z,21.80
2022-11-22T17:48:11.994Z,21.80
2022-11-22T17:50:13.979Z,21.90
2022-11-22T17:52:15.647Z,21.80
2022-11-22T17:54:17.307Z,21.80
2022-11-22T17:56:19.862Z,21.80
2022-11-22T17:58:21.492Z,21.90
2022-11-22T18:00:26.932Z,21.80
2022-11-22T18:02:31.598Z,21.80
2022-11-22T18:04:33.484Z,21.80
2022-11-22T18:06:35.391Z,21.80
2022-11-22T18:08:37.170Z,21.80
2022-11-22T18:10:38.951Z,21.80
2022-11-22T18:12:42.500Z,21.80
2022-11-22T18:14:48.975Z,21.80
2022-11-22T18:16:50.612Z,21.80
2022-11-22T18:18:57.183Z,21.80
2022-11-22T18:20:59.618Z,21.80
2022-11-22T18:23:01.190Z,21.80
2022-11-22T18:25:05.158Z,21.80
2022-11-22T18:27:06.767Z,21.80
2022-11-22T18:29:39.015Z,21.80
2022-11-22T18:31:50.726Z,21.80
2022-11-22T18:33:54.375Z,21.80
2022-11-22T18:36:06.931Z,21.80
2022-11-22T18:38:08.644Z,21.80
2022-11-22T18:40:10.915Z,21.80
2022-11-22T18:42:14.989Z,21.80
2022-11-22T18:44:16.778Z,21.80
2022-11-22T18:46:18.452Z,21.80
2022-11-22T18:48:20.090Z,21.80
2022-11-22T18:50:21.743Z,21.80
2022-11-22T18:52:23.494Z,21.80
2022-11-22T18:54:25.257Z,21.80
2022-11-22T18:56:27.529Z,21.80
2022-11-22T18:58:33.571Z,21.80
2022-11-22T19:00:36.346Z,21.80
2022-11-22T19:02:38.205Z,21.80
2022-11-22T19:04:39.868Z,21.80
2022-11-22T19:06:42.142Z,21.70
2022-11-22T19:08:45.622Z,21.80
2022-11-22T19:10:56.386Z,21.70
2022-11-22T19:12:57.978Z,21.80
2022-11-22T19:14:59.622Z,21.80
2022-11-22T19:17:01.292Z,21.80
2022-11-22T19:19:03.535Z,21.80
2022-11-22T19:21:06.395Z,21.80
2022-11-22T19:23:08.555Z,21.80
2022-11-22T19:25:10.268Z,21.80
2022-11-22T19:27:11.874Z,21.80
2022-11-22T19:29:13.508Z,21.80
2022-11-22T19:31:18.755Z,21.80
2022-11-22T19:33:20.359Z,21.80
2022-11-22T19:35:22.108Z,21.80
2022-11-22T19:37:23.755Z,21.80
2022-11-22T19:39:26.889Z,21.80
2022-11-22T19:41:28.850Z,21.80
2022-11-22T19:43:30.510Z,21.80
2022-11-22T19:45:32.152Z,21.70
2022-11-22T19:47:33.778Z,21.60
2022-11-22T19:49:35.433Z,21.60
2022-11-22T19:51:38.566Z,21.70
2022-11-22T19:53:41.884Z,21.70
2022-11-22T19:55:45.541Z,21.80
2022-11-22T19:57:47.403Z,21.80
2022-11-22T19:59:49.021Z,21.80
2022-11-22T20:01:50.714Z,21.80
2022-11-22T20:03:54.810Z,21.80
2022-11-22T20:05:59.684Z,21.80
2022-11-22T20:08:01.295Z,21.80
2022-11-22T20:10:04.117Z,21.80
2022-11-22T20:12:05.847Z,21.90
2022-11-22T20:14:07.976Z,21.80
2022-11-22T20:16:21.912Z,21.90
2022-11-22T20:18:23.566Z,21.90
2022-11-22T20:20:25.621Z,21.90
2022-11-22T20:22:27.262Z,21.90
2022-11-22T20:24:30.352Z,21.90
2022-11-22T20:26:33.528Z,21.90
2022-11-22T20:28:38.932Z,21.90
2022-11-22T20:30:40.585Z,21.90
2022-11-22T20:32:42.400Z,21.90
2022-11-22T20:34:44.022Z,21.90
2022-11-22T20:36:45.671Z,21.90
2022-11-22T20:38:49.399Z,21.90
2022-11-22T20:40:56.269Z,21.90
2022-11-22T20:42:57.954Z,21.90
2022-11-22T20:44:59.572Z,21.80
2022-11-22T20:47:01.472Z,21.80
2022-11-22T20:49:03.125Z,21.90
2022-11-22T20:51:07.831Z,21.90
2022-11-22T20:53:09.470Z,21.90
2022-11-22T20:55:11.136Z,21.80
2022-11-22T20:57:12.764Z,21.80
2022-11-22T20:59:14.570Z,21.90
2022-11-22T21:01:22.079Z,21.90
2022-11-22T21:03:24.911Z,21.80
2022-11-22T21:05:26.536Z,21.80
2022-11-22T21:07:28.219Z,21.80
2022-11-22T21:09:29.964Z,21.80
2022-11-22T21:11:31.973Z,21.80
2022-11-22T21:13:34.256Z,21.80
2022-11-22T21:15:35.958Z,21.80
2022-11-22T21:17:50.573Z,21.80
2022-11-22T21:19:59.202Z,21.80
2022-11-22T21:22:02.557Z,21.80
2022-11-22T21:24:05.495Z,21.80
2022-11-22T21:26:08.023Z,21.80
2022-11-22T21:28:09.666Z,21.80
2022-11-22T21:30:11.793Z,21.80
2022-11-22T21:32:13.498Z,21.70
2022-11-22T21:34:15.234Z,21.80
2022-11-22T21:36:17.726Z,21.70
2022-11-22T21:38:24.690Z,21.70
2022-11-22T21:40:31.496Z,21.70
2022-11-22T21:42:33.102Z,21.70
2022-11-22T21:44:34.701Z,21.70
2022-11-22T21:46:36.817Z,21.70
2022-11-22T21:48:38.589Z,21.70
2022-11-22T21:50:40.495Z,21.70
2022-11-22T21:52:42.467Z,21.70
2022-11-22T21:54:44.167Z,21.70
2022-11-22T21:56:45.835Z,21.70
2022-11-22T21:58:47.482Z,21.70
2022-11-22T22:00:50.581Z,21.70
2022-11-22T22:02:52.241Z,21.60
2022-11-22T22:04:53.902Z,21.70
2022-11-22T22:06:55.539Z,21.60
2022-11-22T22:08:57.434Z,21.60
2022-11-22T22:11:00.835Z,21.60
2022-11-22T22:13:02.450Z,21.60
2022-11-22T22:15:04.320Z,21.60
2022-11-22T22:17:06.118Z,21.60
2022-11-22T22:19:09.708Z,21.60
2022-11-22T22:21:13.229Z,21.60
2022-11-22T22:23:15.558Z,21.60
2022-11-22T22:25:17.410Z,21.60
2022-11-22T22:27:19.101Z,21.60
2022-11-22T22:29:20.709Z,21.60
2022-11-22T22:31:23.571Z,21.60
2022-11-22T22:33:25.199Z,21.60
2022-11-22T22:35:26.858Z,21.60
2022-11-22T22:37:28.502Z,21.50
2022-11-22T22:39:30.713Z,21.50
2022-11-22T22:41:32.642Z,21.50
2022-11-22T22:43:36.298Z,21.50
2022-11-22T22:45:38.054Z,21.50
2022-11-22T22:47:39.737Z,21.50
2022-11-22T22:49:41.447Z,21.50
2022-11-22T22:51:43.042Z,21.50
2022-11-22T22:53:45.493Z,21.50
2022-11-22T22:55:56.123Z,21.50
2022-11-22T22:58:03.263Z,21.50
2022-11-22T23:00:05.220Z,21.50
2022-11-22T23:02:06.851Z,21.50
2022-11-22T23:04:08.813Z,21.50
2022-11-22T23:06:11.971Z,21.50
2022-11-22T23:08:13.602Z,21.40
2022-11-22T23:10:15.848Z,21.40
2022-11-22T23:12:17.431Z,21.40
2022-11-22T23:14:27.362Z,21.40
2022-11-22T23:16:29.013Z,21.40
2022-11-22T23:18:33.914Z,21.40
2022-11-22T23:20:35.906Z,21.40
2022-11-22T23:22:37.506Z,21.40
2022-11-22T23:24:39.101Z,21.40
2022-11-22T23:26:41.035Z,21.30
2022-11-22T23:28:42.737Z,21.40
2022-11-22T23:30:44.335Z,21.40
2022-11-22T23:32:45.966Z,21.40
2022-11-22T23:34:47.666Z,21.30
2022-11-22T23:36:49.343Z,21.30
2022-11-22T23:38:50.990Z,21.30
2022-11-22T23:40:53.508Z,21.30
2022-11-22T23:42:58.560Z,21.30
2022-11-22T23:45:00.154Z,21.30
2022-11-22T23:47:01.739Z,21.30
2022-11-22T23:49:04.545Z,21.30
2022-11-22T23:51:06.364Z,21.30
2022-11-22T23:53:08.033Z,21.30
2022-11-22T23:55:09.787Z,21.30
2022-11-22T23:57:11.414Z,21.30
2022-11-22T23:59:13.033Z,21.20
